createdAt,value
2019-02-23T00:00:12.831Z,24.4
2019-02-23T00:01:21.223Z,24
2019-02-23T00:02:30.357Z,24.7
2019-02-23T00:03:39.467Z,24.9
2019-02-23T00:04:48.615Z,24.3
2019-02-23T00:05:57.719Z,24.6
2019-02-23T00:07:06.829Z,25.3
2019-02-23T00:08:15.934Z,25.1
2019-02-23T00:09:25.084Z,25.8
2019-02-23T00:10:34.172Z,26.1
2019-02-23T00:11:43.428Z,24.4
2019-02-23T00:12:52.478Z,24.1
2019-02-23T00:14:01.600Z,22.7
2019-02-23T00:15:10.653Z,23.9
2019-02-23T00:16:20.099Z,24.6
2019-02-23T00:45:07.867Z,24.2
2019-02-23T00:46:16.919Z,23.6
2019-02-23T00:47:26.030Z,23.6
2019-02-23T00:48:35.144Z,24
2019-02-23T00:49:44.313Z,24.4
2019-02-23T00:50:53.396Z,24.7
2019-02-23T00:52:02.535Z,24.5
2019-02-23T00:53:11.642Z,24.7
2019-02-23T00:54:20.780Z,26.8
2019-02-23T00:55:29.924Z,26.7
2019-02-23T00:56:39.031Z,24.9
2019-02-23T00:57:48.122Z,24.7
2019-02-23T00:58:57.228Z,23.1
2019-02-23T01:00:06.390Z,24.6
2019-02-23T01:01:15.458Z,24.7
2019-02-23T01:02:24.562Z,24
2019-02-23T01:03:33.697Z,24.7
2019-02-23T01:04:42.855Z,24.9
2019-02-23T01:05:51.935Z,24.3
2019-02-23T01:07:01.071Z,24.8
2019-02-23T01:08:10.252Z,23.9
2019-02-23T01:09:19.307Z,24.2
2019-02-23T01:10:28.387Z,23.8
2019-02-23T01:11:37.533Z,24.7
2019-02-23T01:12:46.681Z,24.8
2019-02-23T01:13:55.768Z,24.7
2019-02-23T01:15:04.906Z,24.9
2019-02-23T01:16:13.987Z,25.1
2019-02-23T01:17:23.139Z,24.9
2019-02-23T01:18:32.382Z,25.7
2019-02-23T01:19:48.163Z,25.7
2019-02-23T01:20:50.450Z,25.5
2019-02-23T01:21:59.557Z,25.9
2019-02-23T01:23:08.718Z,24.9
2019-02-23T01:24:17.831Z,24.9
2019-02-23T01:25:27.067Z,25.2
2019-02-23T01:26:36.047Z,25.1
2019-02-23T01:27:45.154Z,25.1
2019-02-23T01:28:54.331Z,25.9
2019-02-23T01:30:03.407Z,25.5
2019-02-23T01:31:12.517Z,26.2
2019-02-23T01:32:21.662Z,25.9
2019-02-23T01:33:30.795Z,25.2
2019-02-23T01:34:39.839Z,26
2019-02-23T01:35:49.006Z,26.5
2019-02-23T01:36:58.193Z,26.5
2019-02-23T01:38:07.221Z,26.2
2019-02-23T01:39:16.387Z,26.4
2019-02-23T01:40:25.514Z,26.4
2019-02-23T01:41:34.601Z,26.4
2019-02-23T01:42:43.690Z,26.4
2019-02-23T01:43:52.798Z,26.4
2019-02-23T01:45:01.954Z,26.4
2019-02-23T01:46:11.031Z,26.4
2019-02-23T01:47:20.189Z,27.4
2019-02-23T01:48:29.300Z,28.1
2019-02-23T01:49:38.381Z,27.5
2019-02-23T01:50:47.501Z,27.6
2019-02-23T01:51:56.634Z,26.4
2019-02-23T01:53:05.709Z,27
2019-02-23T01:54:14.856Z,26.7
2019-02-23T01:55:23.925Z,27
2019-02-23T01:56:33.064Z,27.1
2019-02-23T01:57:42.180Z,27
2019-02-23T01:58:51.340Z,26.4
2019-02-23T02:00:00.510Z,27
2019-02-23T02:01:09.607Z,27.9
2019-02-23T02:02:18.662Z,27.6
2019-02-23T02:03:27.783Z,28.3
2019-02-23T02:04:36.885Z,27.2
2019-02-23T02:05:45.987Z,28.5
2019-02-23T02:06:55.047Z,28.4
2019-02-23T02:08:04.161Z,27.7
2019-02-23T02:09:13.340Z,27.7
2019-02-23T02:10:22.371Z,27.6
2019-02-23T02:11:31.580Z,27.7
2019-02-23T02:12:40.639Z,28
2019-02-23T02:13:49.741Z,27.5
2019-02-23T02:14:58.833Z,27.7
2019-02-23T02:16:07.956Z,28
2019-02-23T02:17:17.074Z,28.6
2019-02-23T02:18:26.143Z,30
2019-02-23T02:19:35.272Z,29
2019-02-23T02:20:44.372Z,29.4
2019-02-23T02:21:53.474Z,29.4
2019-02-23T02:23:02.565Z,28.6
2019-02-23T02:24:11.680Z,28.9
2019-02-23T02:25:20.795Z,29.3
2019-02-23T02:26:29.931Z,29.5
2019-02-23T02:27:39.003Z,29.1
2019-02-23T02:28:48.275Z,29.6
2019-02-23T02:29:57.223Z,29.7
2019-02-23T02:31:06.360Z,30.4
2019-02-23T02:32:15.456Z,30.3
2019-02-23T02:33:24.576Z,30.2
2019-02-23T02:34:33.665Z,30.9
2019-02-23T02:35:42.750Z,31
2019-02-23T02:36:51.840Z,30.9
2019-02-23T02:38:01.121Z,30.9
2019-02-23T02:39:10.097Z,32.3
2019-02-23T02:40:19.156Z,31
2019-02-23T02:41:28.362Z,30.9
2019-02-23T02:42:37.361Z,31.5
2019-02-23T02:43:46.441Z,32.1
2019-02-23T02:44:55.586Z,31.6
2019-02-23T02:46:04.671Z,34.7
2019-02-23T02:47:13.795Z,32.6
2019-02-23T02:48:22.858Z,33.8
2019-02-23T02:49:31.982Z,32.5
2019-02-23T02:50:41.114Z,32.7
2019-02-23T02:51:50.201Z,32.8
2019-02-23T02:52:59.303Z,33.4
2019-02-23T02:54:08.395Z,36.8
2019-02-23T02:55:17.591Z,34.9
2019-02-23T02:56:26.660Z,35.3
2019-02-23T02:57:35.760Z,34.3
2019-02-23T02:58:44.836Z,33.5
2019-02-23T02:59:53.892Z,34.2
2019-02-23T03:01:03.026Z,35.1
2019-02-23T03:02:12.167Z,34.3
2019-02-23T03:03:21.205Z,34.8
2019-02-23T03:04:30.324Z,35
2019-02-23T03:05:39.431Z,35.1
2019-02-23T03:06:48.558Z,35.2
2019-02-23T03:07:57.613Z,36.6
2019-02-23T03:09:06.745Z,36.6
2019-02-23T03:10:15.840Z,36.6
2019-02-23T03:11:24.903Z,35.2
2019-02-23T03:12:34.036Z,36.6
2019-02-23T03:13:43.141Z,36.6
2019-02-23T03:14:52.233Z,39.9
2019-02-23T03:16:01.367Z,37.6
2019-02-23T03:17:10.427Z,35.1
2019-02-23T03:18:19.538Z,36.6
2019-02-23T03:19:28.646Z,36.6
2019-02-23T03:20:37.706Z,36.1
2019-02-23T03:21:46.825Z,36.3
2019-02-23T03:22:55.930Z,36.6
2019-02-23T03:24:05.029Z,36.6
2019-02-23T03:25:14.144Z,35.7
2019-02-23T03:26:23.209Z,36.6
2019-02-23T03:27:32.463Z,36.6
2019-02-23T03:28:41.414Z,36.6
2019-02-23T03:29:50.496Z,36.6
2019-02-23T03:30:59.627Z,36.6
2019-02-23T03:32:08.764Z,36.6
2019-02-23T03:33:17.825Z,37.1
2019-02-23T03:34:26.912Z,37.9
2019-02-23T03:35:36.021Z,39.3
2019-02-23T03:36:45.113Z,36.8
2019-02-23T03:37:54.258Z,38.1
2019-02-23T03:39:03.277Z,37
2019-02-23T03:40:12.389Z,38.4
2019-02-23T03:41:21.589Z,38.2
2019-02-23T03:42:30.648Z,38.5
2019-02-23T03:43:39.690Z,40
2019-02-23T03:44:48.776Z,38.3
2019-02-23T03:45:57.952Z,38.5
2019-02-23T03:47:06.981Z,39.3
2019-02-23T03:48:16.079Z,38.8
2019-02-23T03:49:25.175Z,38.7
2019-02-23T03:50:34.305Z,39.6
2019-02-23T03:51:43.410Z,37.6
2019-02-23T03:52:52.563Z,38.7
2019-02-23T03:54:01.587Z,40.6
2019-02-23T03:55:10.693Z,40.7
2019-02-23T03:56:19.799Z,38.2
2019-02-23T03:57:28.858Z,38.6
2019-02-23T03:58:37.940Z,38
2019-02-23T03:59:47.039Z,38.7
2019-02-23T04:00:56.135Z,38.7
2019-02-23T04:02:05.255Z,40.4
2019-02-23T04:03:14.354Z,38.7
2019-02-23T04:04:23.440Z,39
2019-02-23T04:05:32.561Z,39.4
2019-02-23T04:06:41.646Z,41.6
2019-02-23T04:07:50.753Z,41.1
2019-02-23T04:09:03.004Z,41.5
2019-02-23T04:10:08.965Z,40
2019-02-23T04:11:18.005Z,39
2019-02-23T04:12:27.144Z,40.8
2019-02-23T04:13:36.313Z,40.3
2019-02-23T04:14:45.320Z,41.3
2019-02-23T04:15:54.511Z,40.5
2019-02-23T04:17:03.477Z,40.9
2019-02-23T04:18:12.702Z,39.5
2019-02-23T04:19:21.700Z,42.1
2019-02-23T04:20:30.929Z,42.3
2019-02-23T04:21:39.884Z,41.1
2019-02-23T04:22:48.984Z,40.3
2019-02-23T04:23:58.102Z,40.7
2019-02-23T04:25:07.154Z,38.4
2019-02-23T04:26:16.369Z,40.7
2019-02-23T04:27:25.370Z,40.5
2019-02-23T04:28:34.465Z,41.2
2019-02-23T04:29:47.141Z,41.5
2019-02-23T04:30:52.655Z,42.9
2019-02-23T04:32:01.953Z,42.4
2019-02-23T04:33:10.830Z,41.5
2019-02-23T04:34:20.047Z,42.3
2019-02-23T04:35:29.042Z,42.3
2019-02-23T04:36:38.098Z,42.3
2019-02-23T04:37:47.233Z,42.6
2019-02-23T04:38:56.339Z,43.1
2019-02-23T04:40:05.423Z,42.1
2019-02-23T04:41:14.534Z,43
2019-02-23T04:42:23.596Z,41.1
2019-02-23T04:43:32.726Z,42.3
2019-02-23T04:44:41.806Z,42.6
2019-02-23T04:45:50.885Z,40
2019-02-23T04:47:00.062Z,42.3
2019-02-23T04:48:09.163Z,42.6
2019-02-23T04:49:18.219Z,40.5
2019-02-23T04:50:27.305Z,39.8
2019-02-23T04:51:36.449Z,39.9
2019-02-23T04:52:45.472Z,39.6
2019-02-23T04:53:54.608Z,39.2
2019-02-23T04:55:03.690Z,40.5
2019-02-23T04:56:12.792Z,40.8
2019-02-23T04:57:21.878Z,40.8
2019-02-23T04:58:30.978Z,40.9
2019-02-23T04:59:40.068Z,41.6
2019-02-23T05:00:49.181Z,40.9
2019-02-23T05:01:58.266Z,42.3
2019-02-23T05:03:07.434Z,41.2
2019-02-23T05:04:19.801Z,42.3
2019-02-23T05:05:25.637Z,41.8
2019-02-23T05:06:34.780Z,42
2019-02-23T05:07:43.751Z,42.3
2019-02-23T05:08:52.852Z,43.5
2019-02-23T05:10:01.921Z,42.3
2019-02-23T05:11:11.058Z,40.8
2019-02-23T05:12:20.115Z,40.5
2019-02-23T05:13:29.319Z,42.3
2019-02-23T05:14:38.319Z,44
2019-02-23T05:15:47.445Z,39.4
2019-02-23T05:16:56.529Z,39.2
2019-02-23T05:37:40.238Z,39.7
2019-02-23T05:38:49.252Z,41.6
2019-02-23T05:39:58.369Z,39.9
2019-02-23T05:41:07.487Z,38.9
2019-02-23T05:42:16.602Z,39.5
2019-02-23T05:43:25.652Z,40.5
2019-02-23T05:44:34.760Z,39.7
2019-02-23T05:45:43.803Z,39.5
2019-02-23T05:46:52.899Z,40.3
2019-02-23T05:48:02.014Z,40.6
2019-02-23T05:49:11.122Z,39.6
2019-02-23T05:50:20.172Z,41.2
2019-02-23T05:51:39.176Z,39.8
2019-02-23T05:52:38.374Z,40.1
2019-02-23T05:53:47.451Z,40.8
2019-02-23T05:54:56.553Z,40.9
2019-02-23T05:56:05.593Z,44.1
2019-02-23T05:57:14.739Z,40.6
2019-02-23T05:58:23.832Z,37.8
2019-02-23T05:59:32.866Z,38.8
2019-02-23T06:00:42.000Z,42.2
2019-02-23T06:01:51.089Z,42.2
2019-02-23T06:03:00.163Z,42.4
2019-02-23T06:04:09.236Z,42.5
2019-02-23T06:05:18.340Z,42.1
2019-02-23T06:06:27.410Z,41.5
2019-02-23T06:07:36.610Z,37.7
2019-02-23T06:08:45.591Z,37.5
2019-02-23T06:09:54.679Z,40
2019-02-23T06:11:03.821Z,42.1
2019-02-23T06:12:12.882Z,42.1
2019-02-23T06:13:21.947Z,42.6
2019-02-23T06:14:31.284Z,43.2
2019-02-23T06:15:40.125Z,47.7
2019-02-23T06:16:49.217Z,40.2
2019-02-23T06:17:58.314Z,40.8
2019-02-23T06:19:07.530Z,42
2019-02-23T06:20:16.486Z,41.3
2019-02-23T06:21:25.555Z,42.4
2019-02-23T06:22:34.669Z,40.5
2019-02-23T06:23:43.745Z,42.1
2019-02-23T06:24:52.899Z,42.1
2019-02-23T06:26:01.976Z,41.3
2019-02-23T06:27:10.991Z,43.8
2019-02-23T06:28:20.150Z,41.8
2019-02-23T06:29:29.181Z,42.3
2019-02-23T06:30:38.267Z,42.2
2019-02-23T06:32:56.462Z,38.8
2019-02-23T06:34:16.695Z,40.2
2019-02-23T06:35:14.592Z,41.6
2019-02-23T06:36:23.743Z,39.2
2019-02-23T06:37:32.925Z,40.3
2019-02-23T06:38:41.912Z,40.8
2019-02-23T06:39:50.974Z,41.2
2019-02-23T06:41:00.060Z,39.3
2019-02-23T06:42:09.159Z,38.6
2019-02-23T06:43:18.328Z,40.1
2019-02-23T06:44:27.478Z,40.4
2019-02-23T06:45:36.433Z,42.9
2019-02-23T06:46:45.532Z,40.8
2019-02-23T06:47:54.651Z,41.3
2019-02-23T06:49:03.786Z,39.5
2019-02-23T06:50:12.811Z,40.7
2019-02-23T06:51:21.910Z,42.4
2019-02-23T06:52:30.994Z,40.6
2019-02-23T06:53:40.122Z,39.1
2019-02-23T06:54:49.236Z,36.5
2019-02-23T06:55:58.307Z,36.5
2019-02-23T06:57:07.399Z,38.6
2019-02-23T06:58:16.546Z,38
2019-02-23T06:59:25.692Z,38.1
2019-02-23T07:00:34.774Z,36.8
2019-02-23T07:01:43.836Z,36.7
2019-02-23T07:02:52.916Z,37.5
2019-02-23T07:04:02.027Z,36.7
2019-02-23T07:05:11.127Z,36.7
2019-02-23T07:06:20.238Z,34
2019-02-23T07:07:29.337Z,34.8
2019-02-23T07:08:38.444Z,35.7
2019-02-23T07:09:47.572Z,36.8
2019-02-23T07:10:56.644Z,35.6
2019-02-23T07:12:05.814Z,34.6
2019-02-23T07:13:14.872Z,33.4
2019-02-23T07:14:23.987Z,33.3
2019-02-23T07:15:33.134Z,34.7
2019-02-23T07:16:42.203Z,34.2
2019-02-23T07:17:51.306Z,34.9
2019-02-23T07:19:00.406Z,34.8
2019-02-23T07:20:09.511Z,33.9
2019-02-23T07:21:18.627Z,35.2
2019-02-23T07:22:27.729Z,34.1
2019-02-23T07:23:36.884Z,35.6
2019-02-23T07:24:45.977Z,35.7
2019-02-23T07:25:55.078Z,34.4
2019-02-23T07:27:04.185Z,35.4
2019-02-23T07:28:13.298Z,35.1
2019-02-23T07:29:22.537Z,37.3
2019-02-23T07:30:31.533Z,37.4
2019-02-23T07:31:40.650Z,36.8
2019-02-23T07:32:49.768Z,37.1
2019-02-23T07:33:58.894Z,35.8
2019-02-23T07:35:08.019Z,35
2019-02-23T07:36:17.120Z,34.3
2019-02-23T07:37:26.237Z,34
2019-02-23T07:38:35.688Z,32
2019-02-23T07:39:44.495Z,34.2
2019-02-23T07:40:53.604Z,36.7
2019-02-23T07:42:02.774Z,36.9
2019-02-23T07:43:11.835Z,34.8
2019-02-23T07:44:20.955Z,35.2
2019-02-23T07:45:30.088Z,34.7
2019-02-23T07:46:39.240Z,32.9
2019-02-23T07:47:48.332Z,31.4
2019-02-23T07:48:57.436Z,30.6
2019-02-23T07:50:06.560Z,31.3
2019-02-23T07:51:15.677Z,31.3
2019-02-23T07:52:26.876Z,31.3
2019-02-23T07:53:34.064Z,32.6
2019-02-23T07:54:43.053Z,32.4
2019-02-23T07:55:52.184Z,32
2019-02-23T07:57:01.403Z,32.1
2019-02-23T07:58:10.451Z,30.2
2019-02-23T07:59:19.553Z,30.5
2019-02-23T08:00:28.690Z,30.5
2019-02-23T08:01:37.898Z,30.4
2019-02-23T08:02:46.913Z,30
2019-02-23T08:03:56.065Z,29.5
2019-02-23T08:05:05.167Z,29.3
2019-02-23T08:06:14.340Z,28
2019-02-23T08:07:23.429Z,29.1
2019-02-23T08:08:32.559Z,27.9
2019-02-23T08:10:50.984Z,26.2
2019-02-23T08:15:27.332Z,25.1
2019-02-23T08:16:36.465Z,24.5
2019-02-23T08:17:45.599Z,24.2
2019-02-23T08:18:54.739Z,22.8
2019-02-23T08:20:03.885Z,20.4
2019-02-23T08:21:13.028Z,20.9
2019-02-23T08:22:22.260Z,21.7
2019-02-23T08:23:31.517Z,21.5
2019-02-23T08:24:40.501Z,21.1
2019-02-23T08:25:49.748Z,20.1
2019-02-23T08:26:58.752Z,21.3
2019-02-23T08:28:07.904Z,20.1
2019-02-23T08:29:17.207Z,19.9
2019-02-23T08:30:26.223Z,18.2
2019-02-23T08:31:35.355Z,19.7
2019-02-23T08:32:44.677Z,20
2019-02-23T08:33:53.686Z,19.3
2019-02-23T08:35:02.829Z,17.9
2019-02-23T08:36:12.009Z,19.2
2019-02-23T08:37:21.149Z,19.4
2019-02-23T08:38:30.422Z,19.5
2019-02-23T08:39:39.581Z,18.1
2019-02-23T08:40:48.640Z,18.1
2019-02-23T08:41:57.826Z,17.5
2019-02-23T08:43:07.009Z,15.9
2019-02-23T08:44:16.247Z,18
2019-02-23T08:45:25.313Z,17.9
2019-02-23T08:46:34.633Z,17.9
2019-02-23T08:47:43.637Z,17.1
2019-02-23T08:48:52.940Z,17.9
2019-02-23T08:50:01.980Z,17
2019-02-23T08:51:11.156Z,17.8
2019-02-23T08:52:20.323Z,18.1
2019-02-23T08:53:29.494Z,16.9
2019-02-23T08:54:38.717Z,16.7
2019-02-23T08:55:47.882Z,16.4
2019-02-23T08:56:57.015Z,14.3
2019-02-23T08:58:06.186Z,15
2019-02-23T08:59:15.411Z,15
2019-02-23T09:00:24.558Z,14.7
2019-02-23T09:01:33.736Z,14.3
2019-02-23T09:02:42.931Z,15.5
2019-02-23T09:03:52.101Z,15.1
2019-02-23T09:05:01.330Z,13.9
2019-02-23T09:06:10.498Z,13.4
2019-02-23T09:07:19.660Z,13.4
2019-02-23T09:08:28.844Z,12.8
2019-02-23T09:09:38.047Z,11.9
2019-02-23T09:10:47.230Z,11.3
2019-02-23T09:11:56.495Z,11.4
2019-02-23T09:13:05.722Z,12.7
2019-02-23T09:14:14.833Z,13.4
2019-02-23T09:15:24.025Z,15.8
2019-02-23T09:16:33.213Z,15
2019-02-23T09:17:42.418Z,13.2
2019-02-23T09:18:51.678Z,15.9
2019-02-23T09:20:00.813Z,15.2
2019-02-23T09:21:10.030Z,13.7
2019-02-23T09:22:19.215Z,9.4
2019-02-23T09:23:28.452Z,9.5
2019-02-23T09:24:37.620Z,8.9
2019-02-23T09:25:46.820Z,9.4
2019-02-23T09:26:56.037Z,10.9
2019-02-23T09:28:05.236Z,10.6
2019-02-23T09:29:14.458Z,9.6
2019-02-23T09:30:23.686Z,9.6
2019-02-23T09:31:32.877Z,9.7
2019-02-23T09:32:42.107Z,9
2019-02-23T09:33:51.299Z,7.4
2019-02-23T09:35:00.681Z,8.4
2019-02-23T09:36:09.750Z,8.1
2019-02-23T09:37:18.999Z,8.7
2019-02-23T09:38:28.189Z,7.1
2019-02-23T09:39:37.428Z,6.9
2019-02-23T09:40:46.656Z,5.5
2019-02-23T09:41:55.890Z,7
2019-02-23T09:43:05.131Z,5.1
2019-02-23T09:44:14.364Z,7.1
2019-02-23T09:45:23.568Z,7.4
2019-02-23T09:46:32.856Z,6.8
2019-02-23T09:47:42.049Z,6.7
2019-02-23T09:48:51.275Z,7.3
2019-02-23T09:50:00.518Z,6.2
2019-02-23T09:51:09.764Z,5
2019-02-23T09:52:19.038Z,5.1
2019-02-23T09:53:28.241Z,5.9
2019-02-23T09:54:37.450Z,6.6
2019-02-23T09:55:46.699Z,5.3
2019-02-23T09:56:55.945Z,5.8
2019-02-23T09:58:05.169Z,4.1
2019-02-23T09:59:15.998Z,4.7
2019-02-23T10:00:25.248Z,5.1
2019-02-23T10:01:34.487Z,4.4
2019-02-23T10:02:43.698Z,4.4
2019-02-23T10:03:53.060Z,4.3
2019-02-23T10:05:02.198Z,1.2
2019-02-23T10:06:11.433Z,2.9
2019-02-23T10:07:20.657Z,3.6
2019-02-23T10:08:29.912Z,3.1
2019-02-23T10:09:39.191Z,2.2
2019-02-23T10:10:48.418Z,2.7
2019-02-23T10:11:57.629Z,1
2019-02-23T10:13:06.857Z,1
2019-02-23T10:14:16.097Z,1
2019-02-23T10:15:25.335Z,1
2019-02-23T10:16:34.574Z,1
2019-02-23T10:17:43.830Z,1
2019-02-23T10:18:53.122Z,1
2019-02-23T10:20:02.540Z,1
2019-02-23T10:21:11.540Z,1
2019-02-23T10:22:20.822Z,1
2019-02-23T10:23:30.096Z,1
2019-02-23T10:24:39.297Z,1
2019-02-23T10:25:48.559Z,1
2019-02-23T10:26:57.782Z,1
2019-02-23T10:28:07.026Z,1
2019-02-23T10:29:16.379Z,1
2019-02-23T10:30:25.539Z,1
2019-02-23T10:31:34.777Z,1
2019-02-23T10:32:44.022Z,1
2019-02-23T10:38:30.581Z,1
2019-02-23T10:39:39.494Z,1
2019-02-23T10:40:48.980Z,1
2019-02-23T10:41:58.008Z,1
2019-02-23T10:43:07.236Z,1
2019-02-23T10:44:16.563Z,1
2019-02-23T10:45:25.760Z,1
2019-02-23T10:46:35.004Z,1
2019-02-23T10:47:44.288Z,1
2019-02-23T10:48:53.530Z,1
2019-02-23T10:50:02.816Z,1
2019-02-23T10:51:12.059Z,1
2019-02-23T10:52:21.326Z,1
2019-02-23T10:53:33.242Z,1
2019-02-23T10:54:39.873Z,1
2019-02-23T10:55:49.112Z,1
2019-02-23T10:56:58.443Z,1
2019-02-23T10:58:07.658Z,1
2019-02-23T10:59:16.931Z,1
2019-02-23T11:00:26.197Z,1
2019-02-23T11:01:35.461Z,1
2019-02-23T11:02:44.733Z,1
2019-02-23T11:03:54.016Z,1
2019-02-23T11:05:03.299Z,1
2019-02-23T11:06:12.548Z,1
2019-02-23T11:07:21.859Z,1
2019-02-23T11:08:31.094Z,1
2019-02-23T11:09:40.379Z,1
2019-02-23T11:10:49.652Z,1
2019-02-23T11:11:58.917Z,1
2019-02-23T11:13:08.195Z,1
2019-02-23T11:14:17.638Z,1
2019-02-23T11:15:26.783Z,1
2019-02-23T11:16:36.038Z,1
2019-02-23T11:17:45.347Z,1
2019-02-23T11:18:54.591Z,1
2019-02-23T11:20:03.875Z,1
2019-02-23T11:21:13.214Z,1
2019-02-23T11:22:22.488Z,1
2019-02-23T11:23:31.730Z,1
2019-02-23T11:24:41.021Z,1
2019-02-23T11:25:50.306Z,1
2019-02-23T11:26:59.590Z,1
2019-02-23T11:28:08.897Z,1
2019-02-23T11:29:18.174Z,1
2019-02-23T11:30:27.462Z,1
2019-02-23T11:31:36.773Z,1
2019-02-23T11:32:46.063Z,1
2019-02-23T11:33:55.367Z,1
2019-02-23T11:35:04.663Z,1
2019-02-23T11:36:14.001Z,1
2019-02-23T11:37:23.313Z,1
2019-02-23T11:38:32.565Z,1
2019-02-23T11:39:41.906Z,1
2019-02-23T11:40:51.235Z,1
2019-02-23T11:42:00.496Z,1
2019-02-23T11:43:09.845Z,1
2019-02-23T11:44:19.129Z,1
2019-02-23T11:45:31.189Z,1
2019-02-23T11:46:37.768Z,1
2019-02-23T11:47:47.125Z,1
2019-02-23T11:48:56.429Z,1
2019-02-23T11:50:05.720Z,1
2019-02-23T11:51:15.076Z,1
2019-02-23T11:52:24.430Z,1
2019-02-23T11:53:33.700Z,1
2019-02-23T11:54:44.317Z,1
2019-02-23T11:55:52.400Z,1
2019-02-23T11:57:01.667Z,1
2019-02-23T11:58:11.017Z,1
2019-02-23T11:59:20.343Z,1
2019-02-23T12:00:29.659Z,1
2019-02-23T12:01:39.003Z,1
2019-02-23T12:02:52.972Z,1
2019-02-23T12:03:57.712Z,1
2019-02-23T12:05:06.977Z,1
2019-02-23T12:06:16.373Z,1
2019-02-23T12:07:25.666Z,1
2019-02-23T12:08:34.985Z,1
2019-02-23T12:09:44.348Z,1
2019-02-23T12:10:53.673Z,1
2019-02-23T12:12:03.049Z,1
2019-02-23T12:13:12.381Z,1
2019-02-23T12:14:21.739Z,1
2019-02-23T12:15:31.137Z,1
2019-02-23T12:16:40.438Z,1
2019-02-23T12:17:49.814Z,1
2019-02-23T12:18:59.170Z,1
2019-02-23T12:20:08.596Z,1
2019-02-23T12:22:27.289Z,1
2019-02-23T12:23:36.612Z,1
2019-02-23T12:24:45.940Z,1
2019-02-23T12:25:55.306Z,1
2019-02-23T12:27:04.648Z,1
2019-02-23T12:28:14.018Z,1
2019-02-23T12:29:23.368Z,1
2019-02-23T12:30:32.991Z,1
2019-02-23T12:31:42.070Z,1
2019-02-23T12:32:51.489Z,1
2019-02-23T12:34:00.990Z,1
2019-02-23T12:35:10.110Z,1
2019-02-23T12:36:19.571Z,1
2019-02-23T12:37:28.795Z,1
2019-02-23T12:38:38.164Z,1
2019-02-23T12:39:47.526Z,1
2019-02-23T12:40:56.804Z,1
2019-02-23T12:42:06.150Z,1
2019-02-23T12:43:15.485Z,1
2019-02-23T12:44:24.823Z,1
2019-02-23T12:45:34.242Z,1
2019-02-23T12:46:43.502Z,1
2019-02-23T12:47:52.833Z,1
2019-02-23T12:49:02.177Z,1
2019-02-23T12:50:11.492Z,1
2019-02-23T12:51:20.824Z,1
2019-02-23T12:52:30.155Z,1
2019-02-23T12:53:39.506Z,1
2019-02-23T12:54:48.932Z,1
2019-02-23T12:55:58.238Z,1
2019-02-23T12:57:07.447Z,1
2019-02-23T12:58:16.775Z,1
2019-02-23T12:59:26.072Z,1
2019-02-23T13:00:35.383Z,1
2019-02-23T13:01:44.794Z,1
2019-02-23T13:02:54.003Z,1
2019-02-23T13:04:03.508Z,1
2019-02-23T13:05:12.620Z,1
2019-02-23T13:06:21.944Z,1
2019-02-23T13:07:31.481Z,1
2019-02-23T13:08:40.566Z,1
2019-02-23T13:09:49.872Z,1
2019-02-23T13:10:59.136Z,1
2019-02-23T13:12:08.434Z,1
2019-02-23T13:13:17.877Z,1
2019-02-23T13:14:27.033Z,1.1
2019-02-23T13:15:36.355Z,1
2019-02-23T13:16:45.674Z,1
2019-02-23T13:17:54.950Z,1.1
2019-02-23T13:19:04.503Z,1
2019-02-23T13:20:13.537Z,1
2019-02-23T13:21:22.837Z,1
2019-02-23T13:22:32.132Z,1
2019-02-23T13:23:41.556Z,1
2019-02-23T13:24:50.800Z,1
2019-02-23T13:26:00.021Z,1.1
2019-02-23T13:27:09.351Z,1
2019-02-23T13:28:18.705Z,1
2019-02-23T13:29:28.003Z,1
2019-02-23T13:30:37.245Z,1
2019-02-23T13:31:46.582Z,1
2019-02-23T13:32:55.858Z,1
2019-02-23T13:34:05.194Z,1
2019-02-23T13:35:14.453Z,1
2019-02-23T13:36:23.788Z,1
2019-02-23T13:37:33.047Z,1
2019-02-23T13:38:42.357Z,1
2019-02-23T13:39:51.663Z,1
2019-02-23T13:41:00.923Z,1
2019-02-23T13:42:10.218Z,1
2019-02-23T13:43:19.512Z,1
2019-02-23T13:44:28.821Z,1
2019-02-23T13:45:38.216Z,1
2019-02-23T13:46:47.436Z,1
2019-02-23T13:47:56.684Z,1
2019-02-23T13:49:05.985Z,1
2019-02-23T13:50:15.267Z,1
2019-02-23T13:51:24.598Z,1
2019-02-23T13:52:33.921Z,1
2019-02-23T13:53:43.133Z,1
2019-02-23T13:54:52.431Z,1
2019-02-23T13:56:01.724Z,1
2019-02-23T13:57:11.054Z,1
2019-02-23T13:58:20.313Z,1
2019-02-23T13:59:29.605Z,1
2019-02-23T14:00:38.890Z,1
2019-02-23T14:01:48.209Z,1
2019-02-23T14:02:57.507Z,1
2019-02-23T14:04:06.779Z,1
2019-02-23T14:05:16.089Z,1
2019-02-23T14:06:25.380Z,1
2019-02-23T14:07:34.676Z,1
2019-02-23T14:08:43.974Z,1
2019-02-23T14:09:53.295Z,1
2019-02-23T14:11:02.561Z,1
2019-02-23T14:12:11.879Z,1
2019-02-23T14:13:21.175Z,1
2019-02-23T14:14:30.474Z,1
2019-02-23T14:15:39.757Z,1
2019-02-23T14:16:49.061Z,1
2019-02-23T14:17:58.353Z,1
2019-02-23T14:19:07.650Z,1
2019-02-23T14:20:16.969Z,1
2019-02-23T14:21:26.286Z,1
2019-02-23T14:22:35.581Z,1
2019-02-23T14:23:44.875Z,1
2019-02-23T14:24:54.203Z,1
2019-02-23T14:26:03.490Z,1
2019-02-23T14:27:12.815Z,1
2019-02-23T14:28:22.200Z,1
2019-02-23T14:29:31.480Z,1
2019-02-23T14:30:40.733Z,1
2019-02-23T14:31:49.981Z,1
2019-02-23T14:32:59.280Z,1
2019-02-23T14:34:08.560Z,1
2019-02-23T14:35:17.868Z,1
2019-02-23T14:36:27.148Z,1
2019-02-23T14:37:36.446Z,1
2019-02-23T14:38:45.817Z,1
2019-02-23T14:39:56.966Z,1
2019-02-23T14:41:04.354Z,1
2019-02-23T14:42:13.620Z,1
2019-02-23T14:43:23.009Z,1
2019-02-23T14:44:32.230Z,1
2019-02-23T14:45:41.537Z,1
2019-02-23T14:46:50.756Z,1
2019-02-23T14:48:00.046Z,1
2019-02-23T14:49:09.401Z,1
2019-02-23T14:50:18.633Z,1
2019-02-23T14:51:27.971Z,1
2019-02-23T14:52:37.228Z,1
2019-02-23T14:53:46.609Z,1
2019-02-23T14:55:01.473Z,1
2019-02-23T14:56:05.003Z,1
2019-02-23T14:57:14.317Z,1
2019-02-23T14:58:23.596Z,1
2019-02-23T14:59:32.875Z,1
2019-02-23T15:00:42.222Z,1
2019-02-23T15:01:51.412Z,1
2019-02-23T15:03:00.648Z,1
2019-02-23T15:04:09.953Z,1
2019-02-23T15:05:19.192Z,1
2019-02-23T15:06:28.471Z,1
2019-02-23T15:07:37.759Z,1
2019-02-23T15:08:47.015Z,1
2019-02-23T15:09:56.339Z,1
2019-02-23T15:11:05.555Z,1
2019-02-23T15:12:14.830Z,1
2019-02-23T15:13:24.107Z,1
2019-02-23T15:14:33.343Z,1
2019-02-23T15:15:42.616Z,1
2019-02-23T15:16:51.887Z,1
2019-02-23T15:18:01.297Z,1
2019-02-23T15:19:10.434Z,1
2019-02-23T15:20:19.689Z,1
2019-02-23T15:21:28.962Z,1
2019-02-23T15:22:38.209Z,1
2019-02-23T15:23:47.506Z,1
2019-02-23T15:24:56.771Z,1
2019-02-23T15:26:06.005Z,1
2019-02-23T15:27:15.274Z,1
2019-02-23T15:28:37.817Z,1
2019-02-23T15:29:34.204Z,1
2019-02-23T15:30:43.045Z,1
2019-02-23T15:31:52.303Z,1
2019-02-23T15:33:01.641Z,1
2019-02-23T15:34:11.048Z,1
2019-02-23T15:35:20.124Z,1
2019-02-23T15:36:29.353Z,1
2019-02-23T15:37:38.604Z,1
2019-02-23T15:38:48.017Z,1
2019-02-23T15:39:57.187Z,1
2019-02-23T15:41:06.497Z,1
2019-02-23T15:42:15.694Z,1
2019-02-23T15:43:24.918Z,1
2019-02-23T15:44:34.251Z,1
2019-02-23T15:45:43.451Z,1
2019-02-23T15:46:52.717Z,1
2019-02-23T15:48:01.970Z,1
2019-02-23T15:49:11.245Z,1
2019-02-23T15:50:20.496Z,1
2019-02-23T15:51:29.843Z,1
2019-02-23T15:52:38.959Z,1
2019-02-23T15:53:48.251Z,1
2019-02-23T15:54:57.462Z,1
2019-02-23T15:56:06.793Z,1
2019-02-23T15:57:16.086Z,1
2019-02-23T15:58:25.179Z,1
2019-02-23T15:59:34.491Z,1
2019-02-23T16:00:43.693Z,1
2019-02-23T16:01:52.933Z,1
2019-02-23T16:03:02.203Z,1
2019-02-23T16:04:11.481Z,1.1
2019-02-23T16:05:20.675Z,1.3
2019-02-23T16:06:31.841Z,1.4
2019-02-23T16:07:39.172Z,1.3
2019-02-23T16:08:48.407Z,1.8
2019-02-23T16:09:57.677Z,1.5
2019-02-23T16:11:06.906Z,2
2019-02-23T16:12:16.165Z,1.9
2019-02-23T16:13:25.439Z,1.8
2019-02-23T16:14:34.638Z,1.4
2019-02-23T16:15:43.934Z,1.8
2019-02-23T16:16:53.110Z,1.2
2019-02-23T16:18:02.376Z,1.6
2019-02-23T16:19:11.597Z,1.5
2019-02-23T16:20:20.826Z,1.6
2019-02-23T16:21:30.062Z,2.4
2019-02-23T16:22:39.304Z,2.6
2019-02-23T16:23:48.565Z,2.9
2019-02-23T16:24:57.788Z,3.2
2019-02-23T16:26:07.026Z,3.2
2019-02-23T16:27:16.349Z,2.9
2019-02-23T16:28:25.545Z,2.9
2019-02-23T16:29:39.042Z,1.6
2019-02-23T16:30:44.020Z,1.5
2019-02-23T16:31:53.194Z,1.8
2019-02-23T16:33:02.507Z,1
2019-02-23T16:34:11.666Z,1
2019-02-23T16:35:22.701Z,1
2019-02-23T16:36:30.164Z,1
2019-02-23T16:37:39.406Z,1
2019-02-23T16:38:48.598Z,1
2019-02-23T16:39:57.855Z,1
2019-02-23T16:41:07.085Z,1
2019-02-23T16:42:16.391Z,1
2019-02-23T16:43:25.521Z,1
2019-02-23T16:44:34.779Z,1
2019-02-23T16:45:44.077Z,1
2019-02-23T16:46:53.226Z,1
2019-02-23T16:48:02.458Z,1
2019-02-23T16:49:11.673Z,1
2019-02-23T16:50:20.913Z,1
2019-02-23T16:51:30.249Z,1.1
2019-02-23T16:52:39.346Z,1.2
2019-02-23T16:53:49.285Z,2.2
2019-02-23T16:54:57.834Z,2.4
2019-02-23T16:56:07.038Z,2.6
2019-02-23T16:57:17.705Z,3.1
2019-02-23T16:58:25.493Z,3.3
2019-02-23T16:59:34.786Z,3.8
2019-02-23T17:00:43.956Z,4
2019-02-23T17:01:53.221Z,4.2